createdAt,value
2019-02-04T00:01:45.471Z,0.40
2019-02-04T00:04:15.194Z,0.40
2019-02-04T00:06:51.886Z,0.40
2019-02-04T00:09:21.206Z,0.40
2019-02-04T00:12:19.282Z,0.40
2019-02-04T00:14:48.277Z,0.40
2019-02-04T00:17:17.367Z,0.40
2019-02-04T00:19:50.363Z,0.30
2019-02-04T00:22:23.613Z,0.40
2019-02-04T00:24:53.926Z,0.30
2019-02-04T00:27:22.953Z,0.30
2019-02-04T00:29:54.287Z,0.30
2019-02-04T00:32:23.602Z,0.40
2019-02-04T00:34:52.597Z,0.40
2019-02-04T00:37:21.523Z,0.30
2019-02-04T00:39:50.569Z,0.40
2019-02-04T00:42:19.484Z,0.40
2019-02-04T00:44:48.555Z,0.40
2019-02-04T00:47:17.851Z,0.40
2019-02-04T00:49:47.024Z,0.40
2019-02-04T00:55:44.373Z,0.40
2019-02-04T00:58:13.376Z,0.40
2019-02-04T01:00:43.898Z,0.40
2019-02-04T01:03:13.244Z,0.40
2019-02-04T01:05:43.068Z,0.40
2019-02-04T01:08:12.057Z,0.40
2019-02-04T01:10:42.200Z,0.50
2019-02-04T01:13:11.167Z,0.50
2019-02-04T01:15:41.096Z,0.50
2019-02-04T01:18:10.137Z,0.50
2019-02-04T01:20:39.642Z,0.50
2019-02-04T01:23:09.023Z,0.50
2019-02-04T01:25:38.565Z,0.50
2019-02-04T01:28:39.296Z,0.50
2019-02-04T01:31:08.291Z,0.50
2019-02-04T01:33:37.184Z,0.50
2019-02-04T01:36:06.170Z,0.50
2019-02-04T01:38:37.427Z,0.50
2019-02-04T01:41:06.391Z,0.50
2019-02-04T01:43:36.892Z,0.50
2019-02-04T01:46:07.845Z,0.50
2019-02-04T01:48:36.562Z,0.50
2019-02-04T01:51:05.480Z,0.50
2019-02-04T01:53:34.425Z,0.50
2019-02-04T01:56:04.651Z,0.50
2019-02-04T01:58:33.971Z,0.50
2019-02-04T02:01:04.807Z,0.50
2019-02-04T02:03:34.053Z,0.50
2019-02-04T02:06:03.012Z,0.50
2019-02-04T02:08:31.895Z,0.50
2019-02-04T02:11:01.690Z,0.50
2019-02-04T02:13:30.558Z,0.50
2019-02-04T02:16:00.850Z,0.50
2019-02-04T02:18:30.158Z,0.50
2019-02-04T02:20:59.138Z,0.60
2019-02-04T02:23:28.136Z,0.50
2019-02-04T02:25:57.918Z,0.50
2019-02-04T02:28:26.973Z,0.50
2019-02-04T02:30:55.949Z,0.50
2019-02-04T02:33:28.455Z,0.50
2019-02-04T02:35:57.623Z,0.50
2019-02-04T02:38:27.101Z,0.50
2019-02-04T02:40:56.378Z,0.60
2019-02-04T02:43:25.355Z,0.60
2019-02-04T02:45:54.271Z,0.60
2019-02-04T02:48:23.219Z,0.50
2019-02-04T02:50:52.195Z,0.60
2019-02-04T02:53:24.623Z,0.60
2019-02-04T02:55:57.528Z,0.60
2019-02-04T02:58:26.784Z,0.60
2019-02-04T03:00:55.724Z,0.60
2019-02-04T03:03:25.031Z,0.70
2019-02-04T03:05:54.371Z,0.70
2019-02-04T03:08:23.522Z,0.70
2019-02-04T03:10:52.574Z,0.70
2019-02-04T03:13:21.668Z,0.70
2019-02-04T03:15:50.900Z,0.70
2019-02-04T03:18:20.624Z,0.70
2019-02-04T03:20:49.787Z,0.70
2019-02-04T03:23:18.794Z,0.70
2019-02-04T03:25:47.699Z,0.80
2019-02-04T03:28:17.541Z,0.70
2019-02-04T03:30:48.303Z,0.80
2019-02-04T03:33:17.230Z,0.80
2019-02-04T03:35:46.274Z,0.80
2019-02-04T03:38:18.374Z,0.90
2019-02-04T03:40:47.526Z,0.90
2019-02-04T03:43:16.665Z,0.90
2019-02-04T03:45:46.003Z,0.90
2019-02-04T03:48:15.499Z,0.90
2019-02-04T03:50:44.392Z,1.00
2019-02-04T03:53:16.963Z,1.00
2019-02-04T03:55:48.925Z,1.00
2019-02-04T03:58:17.833Z,1.00
2019-02-04T04:00:47.686Z,1.00
2019-02-04T04:03:16.869Z,1.00
2019-02-04T04:05:52.207Z,1.00
2019-02-04T04:08:21.102Z,1.00
2019-02-04T04:10:49.998Z,1.00
2019-02-04T04:13:19.193Z,0.90
2019-02-04T04:15:48.649Z,0.90
2019-02-04T04:18:17.853Z,0.90
2019-02-04T04:20:46.779Z,0.90
2019-02-04T04:23:16.019Z,0.90
2019-02-04T04:25:48.357Z,0.90
2019-02-04T04:28:17.377Z,0.90
2019-02-04T04:30:53.095Z,0.90
2019-02-04T04:33:21.991Z,0.90
2019-02-04T04:35:51.282Z,1.00
2019-02-04T04:38:20.565Z,1.00
2019-02-04T04:40:50.057Z,1.00
2019-02-04T04:43:18.997Z,1.00
2019-02-04T04:45:47.974Z,1.00
2019-02-04T04:48:26.348Z,0.90
2019-02-04T04:50:48.167Z,0.90
2019-02-04T04:53:19.467Z,0.90
2019-02-04T04:55:49.311Z,0.90
2019-02-04T04:58:18.319Z,0.90
2019-02-04T05:00:47.303Z,0.90
2019-02-04T05:03:17.849Z,0.90
2019-02-04T05:05:49.771Z,0.80
2019-02-04T05:08:18.795Z,0.80
2019-02-04T05:10:50.769Z,0.80
2019-02-04T05:13:20.014Z,0.80
2019-02-04T05:15:48.909Z,0.80
2019-02-04T05:18:18.171Z,0.80
2019-02-04T05:20:47.358Z,0.80
2019-02-04T05:23:17.264Z,0.80
2019-02-04T05:25:46.702Z,0.70
2019-02-04T05:28:22.336Z,0.80
2019-02-04T05:30:57.638Z,0.70
2019-02-04T05:33:26.853Z,0.70
2019-02-04T05:35:56.882Z,0.70
2019-02-04T05:38:26.433Z,0.70
2019-02-04T05:40:55.427Z,0.70
2019-02-04T05:43:24.621Z,0.70
2019-02-04T05:45:53.522Z,0.70
2019-02-04T05:48:22.876Z,0.70
2019-02-04T05:50:52.027Z,0.70
2019-02-04T05:53:20.935Z,0.70
2019-02-04T05:55:50.155Z,0.70
2019-02-04T05:58:19.196Z,0.70
2019-02-04T06:00:50.502Z,0.70
2019-02-04T06:03:20.126Z,0.70
2019-02-04T06:05:49.432Z,0.80
2019-02-04T06:08:18.715Z,0.80
2019-02-04T06:10:47.685Z,0.80
2019-02-04T06:13:16.638Z,0.80
2019-02-04T06:15:46.467Z,0.80
2019-02-04T06:18:16.227Z,0.80
2019-02-04T06:20:45.229Z,0.80
2019-02-04T06:23:14.519Z,0.80
2019-02-04T06:25:43.727Z,0.90
2019-02-04T06:28:13.936Z,0.80
2019-02-04T06:30:44.015Z,0.90
2019-02-04T06:33:13.454Z,0.90
2019-02-04T06:35:45.581Z,0.90
2019-02-04T06:38:14.525Z,1.00
2019-02-04T06:40:43.517Z,1.00
2019-02-04T06:43:12.772Z,1.00
2019-02-04T06:45:42.213Z,1.00
2019-02-04T06:48:15.151Z,1.10
2019-02-04T06:50:44.135Z,1.10
2019-02-04T06:53:16.887Z,1.20
2019-02-04T06:55:48.901Z,1.20
2019-02-04T06:58:18.019Z,1.20
2019-02-04T07:00:46.917Z,1.20
2019-02-04T07:03:16.158Z,1.20
2019-02-04T07:05:45.023Z,1.20
2019-02-04T07:08:13.998Z,1.30
2019-02-04T07:10:43.630Z,1.20
2019-02-04T07:13:12.615Z,1.20
2019-02-04T07:15:45.308Z,1.20
2019-02-04T07:18:15.116Z,1.20
2019-02-04T07:20:43.970Z,1.20
2019-02-04T07:23:13.937Z,1.30
2019-02-04T07:25:43.253Z,1.30
2019-02-04T07:28:12.160Z,1.30
2019-02-04T07:30:41.158Z,1.30
2019-02-04T07:33:10.457Z,1.30
2019-02-04T07:35:40.922Z,1.40
2019-02-04T07:40:45.350Z,1.30
2019-02-04T07:43:14.786Z,1.40
2019-02-04T07:45:43.672Z,1.40
2019-02-04T07:48:12.842Z,1.40
2019-02-04T07:50:45.436Z,1.40
2019-02-04T07:53:14.574Z,1.50
2019-02-04T07:55:44.021Z,1.50
2019-02-04T07:58:13.238Z,1.50
2019-02-04T08:00:42.450Z,1.50
2019-02-04T08:03:11.710Z,1.60
2019-02-04T08:05:41.507Z,1.70
2019-02-04T08:08:10.501Z,1.70
2019-02-04T08:10:39.441Z,1.70
2019-02-04T08:13:08.345Z,1.70
2019-02-04T08:15:38.397Z,1.70
2019-02-04T08:18:08.099Z,1.70
2019-02-04T08:20:38.123Z,1.60
2019-02-04T08:23:08.681Z,1.60
2019-02-04T08:25:38.409Z,1.60
2019-02-04T08:28:08.195Z,1.60
2019-02-04T08:30:39.928Z,1.60
2019-02-04T08:33:08.971Z,1.60
2019-02-04T08:35:40.931Z,1.60
2019-02-04T08:38:10.039Z,1.60
2019-02-04T08:40:39.638Z,1.60
2019-02-04T08:43:08.968Z,1.60
2019-02-04T08:45:38.447Z,1.60
2019-02-04T08:48:08.505Z,1.70
2019-02-04T08:50:37.438Z,1.70
2019-02-04T08:53:08.570Z,1.70
2019-02-04T08:55:37.682Z,1.80
2019-02-04T08:58:07.321Z,1.80
2019-02-04T09:00:36.658Z,1.90
2019-02-04T09:03:06.356Z,1.90
2019-02-04T09:05:35.502Z,2.00
2019-02-04T09:08:04.510Z,2.00
2019-02-04T09:10:34.078Z,2.10
2019-02-04T09:13:03.309Z,2.10
2019-02-04T09:15:33.237Z,2.10
2019-02-04T09:18:05.968Z,2.20
2019-02-04T09:20:35.328Z,2.20
2019-02-04T09:23:07.439Z,2.30
2019-02-04T09:25:37.396Z,2.30
2019-02-04T09:28:10.144Z,2.40
2019-02-04T09:30:39.907Z,2.40
2019-02-04T09:33:11.273Z,2.50
2019-02-04T09:35:40.234Z,2.50
2019-02-04T09:38:09.566Z,2.60
2019-02-04T09:40:40.984Z,2.70
2019-02-04T09:43:11.355Z,2.70
2019-02-04T09:45:42.178Z,2.70
2019-02-04T09:48:14.966Z,2.80
2019-02-04T09:51:14.887Z,2.80
2019-02-04T09:53:43.779Z,2.90
2019-02-04T09:56:15.890Z,2.90
2019-02-04T09:58:45.742Z,2.90
2019-02-04T10:01:21.278Z,3.00
2019-02-04T10:03:50.328Z,3.00
2019-02-04T10:08:54.198Z,3.10
2019-02-04T10:11:23.174Z,3.10
2019-02-04T10:13:52.470Z,3.20
2019-02-04T10:16:23.757Z,3.20
2019-02-04T10:18:52.691Z,3.20
2019-02-04T10:21:21.696Z,3.30
2019-02-04T10:23:50.714Z,3.30
2019-02-04T10:26:20.756Z,3.30
2019-02-04T10:28:50.464Z,3.30
2019-02-04T10:31:20.139Z,3.40
2019-02-04T10:33:49.398Z,3.40
2019-02-04T10:36:18.396Z,3.40
2019-02-04T10:38:47.380Z,3.40
2019-02-04T10:41:16.736Z,3.50
2019-02-04T10:43:46.581Z,3.50
2019-02-04T10:46:16.306Z,3.60
2019-02-04T10:48:45.758Z,3.60
2019-02-04T10:51:18.022Z,3.60
2019-02-04T10:53:48.350Z,3.60
2019-02-04T10:56:17.648Z,3.60
2019-02-04T10:58:46.956Z,3.60
2019-02-04T11:01:16.996Z,3.60
2019-02-04T11:03:45.992Z,3.60
2019-02-04T11:06:15.073Z,3.60
2019-02-04T11:08:44.397Z,3.60
2019-02-04T11:11:13.662Z,3.70
2019-02-04T11:13:43.009Z,3.70
2019-02-04T11:16:12.468Z,3.60
2019-02-04T11:18:41.461Z,3.60
2019-02-04T11:21:10.562Z,3.60
2019-02-04T11:23:39.653Z,3.60
2019-02-04T11:26:11.753Z,3.50
2019-02-04T11:28:40.822Z,3.50
2019-02-04T11:31:15.044Z,3.50
2019-02-04T11:33:46.895Z,3.40
2019-02-04T11:36:16.751Z,3.40
2019-02-04T11:38:45.865Z,3.30
2019-02-04T11:41:14.946Z,3.30
2019-02-04T11:43:44.283Z,3.10
2019-02-04T11:46:13.259Z,3.00
2019-02-04T11:48:42.556Z,3.00
2019-02-04T11:51:15.728Z,2.80
2019-02-04T11:53:44.636Z,2.80
2019-02-04T11:56:14.411Z,2.70
2019-02-04T11:58:43.381Z,2.60
2019-02-04T12:01:12.357Z,2.60
2019-02-04T12:03:41.680Z,2.50
2019-02-04T12:06:10.851Z,2.40
2019-02-04T12:08:39.853Z,2.30
2019-02-04T12:11:17.610Z,2.40
2019-02-04T12:13:47.458Z,2.40
2019-02-04T12:16:18.646Z,2.30
2019-02-04T12:18:48.120Z,2.30
2019-02-04T12:21:21.808Z,2.20
2019-02-04T12:23:50.933Z,2.20
2019-02-04T12:26:24.249Z,2.10
2019-02-04T12:28:53.498Z,2.10
2019-02-04T12:31:23.227Z,2.10
2019-02-04T12:33:52.599Z,2.10
2019-02-04T12:36:24.345Z,2.10
2019-02-04T12:38:53.325Z,2.10
2019-02-04T12:41:22.246Z,2.10
2019-02-04T12:43:53.135Z,2.00
2019-02-04T12:46:22.124Z,2.00
2019-02-04T12:48:51.810Z,2.00
2019-02-04T12:51:33.318Z,2.00
2019-02-04T12:53:55.675Z,2.10
2019-02-04T12:56:27.719Z,2.00
2019-02-04T12:58:57.003Z,2.10
2019-02-04T13:01:26.320Z,2.10
2019-02-04T13:03:57.421Z,2.10
2019-02-04T13:06:26.743Z,2.10
2019-02-04T13:08:56.091Z,2.00
2019-02-04T13:11:25.318Z,2.10
2019-02-04T13:13:55.034Z,2.00
2019-02-04T13:16:24.216Z,2.00
2019-02-04T13:18:53.454Z,2.00
2019-02-04T13:21:22.826Z,2.00
2019-02-04T13:23:52.191Z,2.00
2019-02-04T13:26:21.650Z,2.00
2019-02-04T13:28:50.626Z,2.00
2019-02-04T13:31:19.558Z,2.00
2019-02-04T13:33:48.485Z,2.00
2019-02-04T13:36:17.422Z,2.10
2019-02-04T13:38:46.756Z,2.10
2019-02-04T13:41:18.999Z,2.10
2019-02-04T13:43:48.311Z,2.10
2019-02-04T13:46:17.331Z,2.10
2019-02-04T13:48:46.376Z,2.10
2019-02-04T13:51:15.753Z,2.20
2019-02-04T13:53:45.632Z,2.20
2019-02-04T13:56:15.352Z,2.20
2019-02-04T13:58:44.380Z,2.20
2019-02-04T14:01:16.639Z,2.20
2019-02-04T14:03:48.332Z,2.20
2019-02-04T14:06:16.315Z,2.20
2019-02-04T14:08:45.339Z,2.20
2019-02-04T14:11:14.354Z,2.20
2019-02-04T14:13:43.371Z,2.20
2019-02-04T14:16:12.746Z,2.20
2019-02-04T14:18:42.448Z,2.20
2019-02-04T14:21:11.716Z,2.20
2019-02-04T14:23:41.681Z,2.10
2019-02-04T14:26:13.869Z,2.20
2019-02-04T14:28:43.428Z,2.20
2019-02-04T14:31:13.234Z,2.20
2019-02-04T14:33:42.146Z,2.20
2019-02-04T14:36:11.451Z,2.20
2019-02-04T14:38:40.763Z,2.20
2019-02-04T14:41:10.145Z,2.20
2019-02-04T14:44:01.953Z,2.30
2019-02-04T14:46:43.562Z,2.20
2019-02-04T14:49:38.747Z,2.30
2019-02-04T14:52:34.579Z,2.30
2019-02-04T14:55:32.596Z,2.30
2019-02-04T14:58:32.622Z,2.30
2019-02-04T15:01:33.502Z,2.30
2019-02-04T15:04:42.889Z,2.30
2019-02-04T15:07:53.103Z,2.30
2019-02-04T15:10:33.883Z,2.30
2019-02-04T15:13:39.832Z,2.30
2019-02-04T15:16:20.677Z,2.30
2019-02-04T15:19:23.754Z,2.40
2019-02-04T15:22:33.008Z,2.40
2019-02-04T15:25:44.235Z,2.40
2019-02-04T15:28:43.253Z,2.40
2019-02-04T15:31:28.388Z,2.40
2019-02-04T15:34:26.464Z,2.40
2019-02-04T15:37:35.760Z,2.40
2019-02-04T15:40:52.205Z,2.40
2019-02-04T15:43:49.461Z,2.50
2019-02-04T15:47:02.931Z,2.50
2019-02-04T15:50:12.324Z,2.50
2019-02-04T15:52:45.772Z,2.50
2019-02-04T15:55:18.277Z,2.50
2019-02-04T15:57:47.622Z,2.60
2019-02-04T16:00:16.991Z,2.60
2019-02-04T16:02:47.481Z,2.60
2019-02-04T16:05:16.436Z,2.60
2019-02-04T16:07:45.721Z,2.70
2019-02-04T16:10:18.329Z,2.60
2019-02-04T16:12:54.852Z,2.70
2019-02-04T16:15:23.904Z,2.70
2019-02-04T16:17:53.582Z,2.70
2019-02-04T16:20:24.615Z,2.70
2019-02-04T16:22:58.546Z,2.70
2019-02-04T16:25:25.792Z,2.70
2019-02-04T16:27:54.802Z,2.70
2019-02-04T16:30:24.660Z,2.70
2019-02-04T16:32:54.092Z,2.70
2019-02-04T16:35:23.994Z,2.70
2019-02-04T16:37:58.052Z,2.70
2019-02-04T16:40:35.069Z,2.70
2019-02-04T16:43:06.159Z,2.70
2019-02-04T16:45:35.739Z,2.70
2019-02-04T16:48:05.033Z,2.70
2019-02-04T16:50:34.420Z,2.70
2019-02-04T16:53:10.534Z,2.70
2019-02-04T16:55:35.017Z,2.70
2019-02-04T16:58:04.107Z,2.70
2019-02-04T17:00:33.663Z,2.70
2019-02-04T17:03:02.734Z,2.70
2019-02-04T17:05:32.524Z,2.70
2019-02-04T17:08:01.873Z,2.70
2019-02-04T17:10:31.066Z,2.70
2019-02-04T17:13:00.590Z,2.70
2019-02-04T17:15:29.906Z,2.70
2019-02-04T17:17:59.248Z,2.70
2019-02-04T17:20:37.650Z,2.70
2019-02-04T17:23:07.483Z,2.70
2019-02-04T17:25:38.276Z,2.70
2019-02-04T17:28:08.014Z,2.70
2019-02-04T17:30:37.663Z,2.70
2019-02-04T17:33:07.034Z,2.70
2019-02-04T17:35:36.689Z,2.70
2019-02-04T17:38:22.395Z,2.70
2019-02-04T17:40:51.491Z,2.80
2019-02-04T17:50:06.258Z,2.70
2019-02-04T17:52:35.453Z,2.70
2019-02-04T17:55:05.321Z,2.80
2019-02-04T17:57:34.372Z,2.80
2019-02-04T18:00:03.560Z,2.80
2019-02-04T18:02:34.717Z,2.80
2019-02-04T18:05:03.937Z,2.80
2019-02-04T18:07:33.055Z,2.80
2019-02-04T18:10:02.016Z,2.80
2019-02-04T18:12:31.025Z,2.80
2019-02-04T18:15:00.203Z,2.80
2019-02-04T18:17:29.360Z,2.80
2019-02-04T18:19:58.520Z,2.80
2019-02-04T18:22:28.937Z,2.80
2019-02-04T18:24:59.127Z,2.80
2019-02-04T18:27:28.140Z,2.80
2019-02-04T18:29:58.136Z,2.90
2019-02-04T18:35:03.822Z,2.90
2019-02-04T18:37:33.201Z,2.90
2019-02-04T18:40:02.914Z,2.90
2019-02-04T18:42:32.749Z,2.90
2019-02-04T18:45:05.086Z,2.90
2019-02-04T18:47:34.174Z,2.90
2019-02-04T18:50:05.181Z,2.90
2019-02-04T18:52:37.079Z,2.90
2019-02-04T18:55:06.172Z,2.90
2019-02-04T18:57:35.293Z,3.00
2019-02-04T19:00:05.442Z,3.00
2019-02-04T19:02:38.034Z,3.00
2019-02-04T19:05:07.918Z,3.00
2019-02-04T19:07:38.154Z,3.00
2019-02-04T19:10:07.983Z,3.00
2019-02-04T19:12:37.110Z,3.00
2019-02-04T19:15:08.211Z,3.00
2019-02-04T19:17:39.650Z,3.00
2019-02-04T19:20:14.360Z,3.00
2019-02-04T19:22:43.381Z,3.00
2019-02-04T19:25:13.233Z,3.10
2019-02-04T19:27:45.446Z,3.00
2019-02-04T19:30:41.281Z,3.10
2019-02-04T19:33:15.108Z,3.10
2019-02-04T19:35:50.455Z,3.10
2019-02-04T19:38:19.557Z,3.10
2019-02-04T19:40:54.805Z,3.10
2019-02-04T19:43:24.550Z,3.10
2019-02-04T19:45:53.663Z,3.10
2019-02-04T19:48:23.306Z,3.10
2019-02-04T19:50:52.344Z,3.10
2019-02-04T19:53:22.794Z,3.10
2019-02-04T19:55:52.640Z,3.20
2019-02-04T19:58:22.747Z,3.10
2019-02-04T20:00:54.816Z,3.10
2019-02-04T20:03:23.906Z,3.20
2019-02-04T20:05:56.126Z,3.10
2019-02-04T20:08:27.968Z,3.20
2019-02-04T20:10:57.402Z,3.20
2019-02-04T20:13:29.846Z,3.20
2019-02-04T20:15:58.946Z,3.20
2019-02-04T20:18:28.284Z,3.20
2019-02-04T20:20:57.458Z,3.20
2019-02-04T20:23:26.782Z,3.20
2019-02-04T20:25:55.977Z,3.20
2019-02-04T20:28:28.283Z,3.20
2019-02-04T20:30:57.872Z,3.20
2019-02-04T20:33:27.768Z,3.20
2019-02-04T20:36:00.190Z,3.20
2019-02-04T20:38:31.228Z,3.20
2019-02-04T20:41:00.293Z,3.20
2019-02-04T20:43:29.500Z,3.20
2019-02-04T20:45:59.651Z,3.20
2019-02-04T20:48:29.024Z,3.30
2019-02-04T20:51:00.267Z,3.20
2019-02-04T20:53:30.406Z,3.20
2019-02-04T20:55:59.911Z,3.30
2019-02-04T20:58:32.087Z,3.20
2019-02-04T21:01:02.063Z,3.30
2019-02-04T21:03:32.290Z,3.30
2019-02-04T21:06:02.710Z,3.30
2019-02-04T21:08:31.973Z,3.30
2019-02-04T21:11:02.474Z,3.30
2019-02-04T21:13:31.960Z,3.30
2019-02-04T21:16:01.203Z,3.30
2019-02-04T21:18:33.494Z,3.30
2019-02-04T21:21:04.589Z,3.30
2019-02-04T21:23:33.750Z,3.30
2019-02-04T21:26:03.199Z,3.40
2019-02-04T21:31:12.081Z,3.40
2019-02-04T21:33:41.404Z,3.30
2019-02-04T21:36:11.818Z,3.30
2019-02-04T21:38:40.911Z,3.40
2019-02-04T21:41:10.245Z,3.40
2019-02-04T21:43:46.747Z,3.40
2019-02-04T21:46:19.694Z,3.40
2019-02-04T21:48:51.004Z,3.40
2019-02-04T21:51:20.072Z,3.40
2019-02-04T21:53:49.094Z,3.40
2019-02-04T21:56:18.872Z,3.40
2019-02-04T21:58:53.225Z,3.40
2019-02-04T22:01:22.061Z,3.40
2019-02-04T22:03:51.305Z,3.40
2019-02-04T22:06:20.264Z,3.50
2019-02-04T22:08:49.935Z,3.50
2019-02-04T22:11:19.179Z,3.50
2019-02-04T22:13:48.288Z,3.50
2019-02-04T22:16:17.705Z,3.50
2019-02-04T22:18:50.068Z,3.50
2019-02-04T22:21:19.360Z,3.50
2019-02-04T22:23:48.423Z,3.50
2019-02-04T22:26:17.471Z,3.50
2019-02-04T22:28:46.745Z,3.50
2019-02-04T22:31:17.405Z,3.50
2019-02-04T22:33:47.148Z,3.50
2019-02-04T22:36:16.174Z,3.50
2019-02-04T22:38:45.357Z,3.50
2019-02-04T22:43:49.005Z,3.60
2019-02-04T22:46:18.133Z,3.50
2019-02-04T22:48:47.434Z,3.60
2019-02-04T22:53:52.455Z,3.60
2019-02-04T22:56:21.764Z,3.60
2019-02-04T22:58:52.443Z,3.60
2019-02-04T23:01:44.936Z,3.60
2019-02-04T23:04:14.112Z,3.60
2019-02-04T23:06:43.833Z,3.60
2019-02-04T23:09:12.768Z,3.60
2019-02-04T23:11:41.808Z,3.60
2019-02-04T23:14:10.710Z,3.60
2019-02-04T23:16:39.697Z,3.60
2019-02-04T23:19:08.629Z,3.60
2019-02-04T23:21:38.086Z,3.60
2019-02-04T23:24:07.703Z,3.70
2019-02-04T23:26:36.875Z,3.70
2019-02-04T23:29:06.313Z,3.70
2019-02-04T23:31:35.690Z,3.70
2019-02-04T23:34:05.912Z,3.70
2019-02-04T23:36:34.853Z,3.70
2019-02-04T23:39:07.352Z,3.70
2019-02-04T23:45:05.320Z,3.70
2019-02-04T23:47:37.658Z,3.70
2019-02-04T23:50:09.722Z,3.70
2019-02-04T23:52:39.953Z,3.70
2019-02-04T23:55:09.092Z,3.70
2019-02-04T23:57:38.014Z,3.80
